createdAt,value
2023-02-18T00:00:30.294Z,62.12
2023-02-18T00:02:58.351Z,61.45
2023-02-18T00:05:26.499Z,61.53
2023-02-18T00:07:54.522Z,62.09
2023-02-18T00:10:26.538Z,62.08
2023-02-18T00:12:55.856Z,62.03
2023-02-18T00:15:23.861Z,62.84
2023-02-18T00:17:51.866Z,62.77
2023-02-18T00:20:21.948Z,62.17
2023-02-18T00:22:49.968Z,62.33
2023-02-18T00:25:18.225Z,62.54
2023-02-18T00:27:46.372Z,62.09
2023-02-18T00:30:16.474Z,61.82
2023-02-18T00:32:44.580Z,61.86
2023-02-18T00:35:12.565Z,61.75
2023-02-18T00:37:44.337Z,61.85
2023-02-18T00:40:14.002Z,61.60
2023-02-18T00:42:42.006Z,61.37
2023-02-18T00:45:10.754Z,61.27
2023-02-18T00:47:40.119Z,61.51
2023-02-18T00:50:09.763Z,61.37
2023-02-18T00:52:38.187Z,61.64
2023-02-18T00:55:07.120Z,62.26
2023-02-18T00:57:35.121Z,62.32
2023-02-18T01:00:05.371Z,63.30
2023-02-18T01:02:33.717Z,62.45
2023-02-18T01:05:03.231Z,62.38
2023-02-18T01:07:31.358Z,62.03
2023-02-18T01:10:00.671Z,62.91
2023-02-18T01:12:29.222Z,61.93
2023-02-18T01:14:57.488Z,62.72
2023-02-18T01:17:25.674Z,62.68
2023-02-18T01:19:53.698Z,62.39
2023-02-18T01:22:24.214Z,63.33
2023-02-18T01:24:53.444Z,63.05
2023-02-18T01:27:21.730Z,62.36
2023-02-18T01:29:49.764Z,62.61
2023-02-18T01:32:41.723Z,62.96
2023-02-18T01:35:15.864Z,63.26
2023-02-18T01:37:45.235Z,63.00
2023-02-18T01:40:18.349Z,62.65
2023-02-18T01:42:46.524Z,63.12
2023-02-18T01:46:31.542Z,63.02
2023-02-18T01:49:05.641Z,63.54
2023-02-18T01:51:38.506Z,62.58
2023-02-18T01:54:14.002Z,63.13
2023-02-18T01:56:49.153Z,62.66
2023-02-18T01:59:27.105Z,62.89
2023-02-18T02:01:56.683Z,63.15
2023-02-18T02:04:25.309Z,63.36
2023-02-18T02:06:53.504Z,62.98
2023-02-18T02:09:29.556Z,63.04
2023-02-18T02:12:31.060Z,62.33
2023-02-18T02:15:24.233Z,62.43
2023-02-18T02:18:10.571Z,62.50
2023-02-18T02:21:19.989Z,63.18
2023-02-18T02:24:23.154Z,63.34
2023-02-18T02:27:16.806Z,63.28
2023-02-18T02:30:51.530Z,63.41
2023-02-18T02:33:54.667Z,63.08
2023-02-18T02:36:30.484Z,62.83
2023-02-18T02:39:09.172Z,62.90
2023-02-18T02:41:53.232Z,62.69
2023-02-18T02:44:27.266Z,62.69
2023-02-18T02:47:03.052Z,62.89
2023-02-18T02:49:42.418Z,62.51
2023-02-18T02:52:18.545Z,61.95
2023-02-18T02:54:47.264Z,62.37
2023-02-18T02:57:48.186Z,62.27
2023-02-18T03:00:28.178Z,62.33
2023-02-18T03:03:45.024Z,62.01
2023-02-18T03:06:42.439Z,62.04
2023-02-18T03:09:19.868Z,61.42
2023-02-18T03:11:59.077Z,61.60
2023-02-18T03:14:36.010Z,61.44
2023-02-18T03:17:12.104Z,60.64
2023-02-18T03:19:46.634Z,60.87
2023-02-18T03:22:21.336Z,60.71
2023-02-18T03:24:55.210Z,61.14
2023-02-18T03:27:29.867Z,61.25
2023-02-18T03:30:03.749Z,61.21
2023-02-18T03:32:35.285Z,61.48
2023-02-18T03:35:09.586Z,61.51
2023-02-18T03:37:43.861Z,61.13
2023-02-18T03:40:13.823Z,61.12
2023-02-18T03:42:41.879Z,61.14
2023-02-18T03:45:09.953Z,61.37
2023-02-18T03:47:38.118Z,61.33
2023-02-18T03:50:08.072Z,61.62
2023-02-18T03:52:36.825Z,61.90
2023-02-18T03:55:05.649Z,61.45
2023-02-18T03:57:34.959Z,61.19
2023-02-18T04:00:04.238Z,61.53
2023-02-18T04:02:41.706Z,61.43
2023-02-18T04:05:11.709Z,60.79
2023-02-18T04:07:39.999Z,60.76
2023-02-18T04:10:09.509Z,60.97
2023-02-18T04:12:39.002Z,61.05
2023-02-18T04:15:07.850Z,60.57
2023-02-18T04:17:36.171Z,60.30
2023-02-18T04:20:04.755Z,60.29
2023-02-18T04:22:32.871Z,60.11
2023-02-18T04:25:01.474Z,60.07
2023-02-18T04:27:29.472Z,60.35
2023-02-18T04:29:58.922Z,59.71
2023-02-18T04:32:27.051Z,59.35
2023-02-18T04:34:55.054Z,60.07
2023-02-18T04:37:23.066Z,59.75
2023-02-18T04:39:51.081Z,60.34
2023-02-18T04:42:19.196Z,60.07
2023-02-18T04:44:47.649Z,60.24
2023-02-18T04:47:17.215Z,60.15
2023-02-18T04:49:45.299Z,60.05
2023-02-18T04:52:13.319Z,60.04
2023-02-18T04:54:41.321Z,60.21
2023-02-18T04:57:13.968Z,59.92
2023-02-18T04:59:44.376Z,59.67
2023-02-18T05:02:12.477Z,60.00
2023-02-18T05:04:41.800Z,59.77
2023-02-18T05:07:09.933Z,60.03
2023-02-18T05:09:37.947Z,60.51
2023-02-18T05:12:07.634Z,60.30
2023-02-18T05:14:35.726Z,60.32
2023-02-18T05:17:04.060Z,60.14
2023-02-18T05:19:32.091Z,60.30
2023-02-18T05:22:01.477Z,60.20
2023-02-18T05:24:29.518Z,59.85
2023-02-18T05:26:57.600Z,60.40
2023-02-18T05:29:25.651Z,59.73
2023-02-18T05:31:53.760Z,60.46
2023-02-18T05:34:21.832Z,60.46
2023-02-18T05:36:49.857Z,60.87
2023-02-18T05:39:19.323Z,60.89
2023-02-18T05:41:47.294Z,60.99
2023-02-18T05:44:33.592Z,60.54
2023-02-18T05:47:04.581Z,60.77
2023-02-18T05:49:33.895Z,60.66
2023-02-18T05:52:03.075Z,60.82
2023-02-18T05:58:20.923Z,61.27
2023-02-18T06:00:48.929Z,60.83
2023-02-18T06:03:17.028Z,61.03
2023-02-18T06:05:45.021Z,61.38
2023-02-18T06:08:13.098Z,61.38
2023-02-18T06:10:43.011Z,61.07
2023-02-18T06:13:11.017Z,61.08
2023-02-18T06:15:40.129Z,61.05
2023-02-18T06:18:08.353Z,61.14
2023-02-18T06:20:36.361Z,60.77
2023-02-18T06:23:04.388Z,61.27
2023-02-18T06:25:32.384Z,61.08
2023-02-18T06:28:01.722Z,60.75
2023-02-18T06:30:30.004Z,60.79
2023-02-18T06:32:58.201Z,60.96
2023-02-18T06:35:26.239Z,61.24
2023-02-18T06:37:54.416Z,61.17
2023-02-18T06:40:22.501Z,60.78
2023-02-18T06:42:50.570Z,60.41
2023-02-18T06:45:20.187Z,60.83
2023-02-18T06:47:48.311Z,60.81
2023-02-18T06:50:16.656Z,60.99
2023-02-18T06:52:44.665Z,60.90
2023-02-18T06:55:12.862Z,60.62
2023-02-18T06:57:40.859Z,60.66
2023-02-18T07:00:10.434Z,60.29
2023-02-18T07:02:40.191Z,60.33
2023-02-18T07:05:09.812Z,59.85
2023-02-18T07:08:02.576Z,59.69
2023-02-18T07:10:30.920Z,59.40
2023-02-18T07:12:59.229Z,59.79
2023-02-18T07:15:27.966Z,59.48
2023-02-18T07:17:57.503Z,59.88
2023-02-18T07:20:26.662Z,59.60
2023-02-18T07:22:55.525Z,60.11
2023-02-18T07:25:23.967Z,59.63
2023-02-18T07:27:52.301Z,59.78
2023-02-18T07:30:21.476Z,59.15
2023-02-18T07:32:49.810Z,59.48
2023-02-18T07:35:21.563Z,59.05
2023-02-18T07:37:50.959Z,59.12
2023-02-18T07:40:22.403Z,59.10
2023-02-18T07:42:50.604Z,58.44
2023-02-18T07:45:46.328Z,58.71
2023-02-18T07:48:15.287Z,59.16
2023-02-18T07:50:47.186Z,58.71
2023-02-18T07:53:17.741Z,58.47
2023-02-18T07:55:51.776Z,58.59
2023-02-18T07:58:21.882Z,58.87
2023-02-18T08:00:50.664Z,58.48
2023-02-18T08:03:20.776Z,58.56
2023-02-18T08:05:53.009Z,58.73
2023-02-18T08:08:23.500Z,58.84
2023-02-18T08:10:53.646Z,58.85
2023-02-18T08:13:21.718Z,58.52
2023-02-18T08:15:50.179Z,57.97
2023-02-18T08:18:20.778Z,58.36
2023-02-18T08:20:51.737Z,58.02
2023-02-18T08:23:21.856Z,58.28
2023-02-18T08:25:51.909Z,58.26
2023-02-18T08:28:22.695Z,58.58
2023-02-18T08:30:54.161Z,58.49
2023-02-18T08:33:23.233Z,58.36
2023-02-18T08:35:56.046Z,58.31
2023-02-18T08:38:26.068Z,58.75
2023-02-18T08:41:03.916Z,58.90
2023-02-18T08:43:32.204Z,58.89
2023-02-18T08:46:01.056Z,58.56
2023-02-18T08:48:31.492Z,58.59
2023-02-18T08:51:01.345Z,58.37
2023-02-18T08:53:55.091Z,58.49
2023-02-18T08:56:23.279Z,58.41
2023-02-18T08:58:51.632Z,58.57
2023-02-18T09:01:20.862Z,58.67
2023-02-18T09:03:49.348Z,58.66
2023-02-18T09:06:18.814Z,58.49
2023-02-18T09:08:46.917Z,58.87
2023-02-18T09:11:15.024Z,58.15
2023-02-18T09:13:43.365Z,58.11
2023-02-18T09:16:15.308Z,58.26
2023-02-18T09:18:44.391Z,58.23
2023-02-18T09:21:15.791Z,57.98
2023-02-18T09:23:45.212Z,57.95
2023-02-18T09:26:23.204Z,57.46
2023-02-18T09:28:52.701Z,58.24
2023-02-18T09:31:27.825Z,57.90
2023-02-18T09:34:21.031Z,58.09
2023-02-18T09:36:49.013Z,58.22
2023-02-18T09:39:20.012Z,57.77
2023-02-18T09:41:51.499Z,57.25
2023-02-18T09:44:26.183Z,58.17
2023-02-18T09:47:00.243Z,57.97
2023-02-18T09:49:33.568Z,58.01
2023-02-18T09:52:08.193Z,57.79
2023-02-18T09:54:37.605Z,57.78
2023-02-18T10:01:07.287Z,57.09
2023-02-18T10:03:35.757Z,57.65
2023-02-18T10:06:11.854Z,57.92
2023-02-18T10:08:45.736Z,57.56
2023-02-18T10:11:18.915Z,57.58
2023-02-18T10:13:49.867Z,57.62
2023-02-18T10:16:21.925Z,57.44
2023-02-18T10:18:54.793Z,56.91
2023-02-18T10:21:27.047Z,56.73
2023-02-18T10:24:01.534Z,56.78
2023-02-18T10:26:35.574Z,56.89
2023-02-18T10:29:04.789Z,56.80
2023-02-18T10:31:38.156Z,56.46
2023-02-18T10:34:20.030Z,55.90
2023-02-18T10:36:56.109Z,56.10
2023-02-18T10:39:45.429Z,56.05
2023-02-18T10:42:31.654Z,56.45
2023-02-18T10:45:10.797Z,56.50
2023-02-18T10:47:48.186Z,55.62
2023-02-18T10:50:29.375Z,55.78
2023-02-18T10:53:00.795Z,55.77
2023-02-18T10:55:39.324Z,55.64
2023-02-18T10:58:28.500Z,55.28
2023-02-18T11:00:56.819Z,54.67
2023-02-18T11:03:27.564Z,54.84
2023-02-18T11:05:57.650Z,55.36
2023-02-18T11:08:28.979Z,55.43
2023-02-18T11:10:58.497Z,55.58
2023-02-18T11:13:31.870Z,55.05
2023-02-18T11:16:04.250Z,54.68
2023-02-18T11:18:40.389Z,53.94
2023-02-18T11:21:26.525Z,54.74
2023-02-18T11:23:57.105Z,53.94
2023-02-18T11:26:31.491Z,53.75
2023-02-18T11:29:05.074Z,53.29
2023-02-18T11:31:43.675Z,53.15
2023-02-18T11:34:19.666Z,53.72
2023-02-18T11:36:49.522Z,53.54
2023-02-18T11:39:24.424Z,52.58
2023-02-18T11:41:58.394Z,52.95
2023-02-18T11:44:32.364Z,53.39
2023-02-18T11:47:03.913Z,53.38
2023-02-18T11:49:34.663Z,52.76
2023-02-18T11:52:18.006Z,52.98
2023-02-18T11:55:02.644Z,52.76
2023-02-18T11:57:31.874Z,52.62
2023-02-18T12:00:01.909Z,52.40
2023-02-18T12:02:36.949Z,52.07
2023-02-18T12:05:13.847Z,52.00
2023-02-18T12:07:48.891Z,52.36
2023-02-18T12:10:27.678Z,51.78
2023-02-18T12:13:03.459Z,51.75
2023-02-18T12:15:50.321Z,51.16
2023-02-18T12:18:46.732Z,51.65
2023-02-18T12:21:44.041Z,52.55
2023-02-18T12:24:32.542Z,52.19
2023-02-18T12:27:11.294Z,52.41
2023-02-18T12:30:07.980Z,51.84
2023-02-18T12:32:46.140Z,51.97
2023-02-18T12:35:44.273Z,52.69
2023-02-18T12:38:53.637Z,52.64
2023-02-18T12:41:55.731Z,52.76
2023-02-18T12:44:45.207Z,52.87
2023-02-18T12:47:38.194Z,52.49
2023-02-18T12:50:51.771Z,53.20
2023-02-18T12:54:07.595Z,52.65
2023-02-18T12:57:00.377Z,52.45
2023-02-18T12:59:52.045Z,52.73
2023-02-18T13:02:47.541Z,52.48
2023-02-18T13:05:33.651Z,52.35
2023-02-18T13:08:32.271Z,53.35
2023-02-18T13:11:15.673Z,53.01
2023-02-18T13:13:53.234Z,53.71
2023-02-18T13:16:22.899Z,53.41
2023-02-18T13:19:03.139Z,53.49
2023-02-18T13:21:33.042Z,53.21
2023-02-18T13:24:05.543Z,53.46
2023-02-18T13:26:40.808Z,53.29
2023-02-18T13:29:49.732Z,53.20
2023-02-18T13:32:27.377Z,53.37
2023-02-18T13:35:07.795Z,53.49
2023-02-18T13:37:49.022Z,53.94
2023-02-18T13:40:22.205Z,53.81
2023-02-18T13:42:53.015Z,53.39
2023-02-18T13:45:29.469Z,53.33
2023-02-18T13:47:58.820Z,53.42
2023-02-18T13:50:32.634Z,53.22
2023-02-18T13:53:23.122Z,52.61
2023-02-18T13:56:08.384Z,52.07
2023-02-18T13:58:44.054Z,51.43
2023-02-18T14:01:42.104Z,52.46
2023-02-18T14:04:53.087Z,52.69
2023-02-18T14:07:46.226Z,52.97
2023-02-18T14:10:35.555Z,53.73
2023-02-18T14:13:40.020Z,53.46
2023-02-18T14:16:09.612Z,53.48
2023-02-18T14:19:00.457Z,53.18
2023-02-18T14:21:42.450Z,53.79
2023-02-18T14:24:13.363Z,53.64
2023-02-18T14:26:47.025Z,53.43
2023-02-18T14:29:28.533Z,53.25
2023-02-18T14:32:04.212Z,53.08
2023-02-18T14:35:18.729Z,53.08
2023-02-18T14:38:16.539Z,53.49
2023-02-18T14:41:33.360Z,53.18
2023-02-18T14:44:37.115Z,53.25
2023-02-18T14:47:21.932Z,52.80
2023-02-18T14:49:53.098Z,53.42
2023-02-18T14:52:32.692Z,53.53
2023-02-18T14:55:04.653Z,53.89
2023-02-18T14:57:39.886Z,53.81
2023-02-18T15:00:18.164Z,53.47
2023-02-18T15:02:51.254Z,53.79
2023-02-18T15:05:23.426Z,54.75
2023-02-18T15:08:00.744Z,54.69
2023-02-18T15:10:40.170Z,54.85
2023-02-18T15:13:17.920Z,54.81
2023-02-18T15:15:51.750Z,55.67
2023-02-18T15:18:29.323Z,55.34
2023-02-18T15:20:57.685Z,55.52
2023-02-18T15:23:25.761Z,55.49
2023-02-18T15:25:55.703Z,55.96
2023-02-18T15:28:28.075Z,56.49
2023-02-18T15:30:59.526Z,56.46
2023-02-18T15:33:28.859Z,56.38
2023-02-18T15:36:03.141Z,56.84
2023-02-18T15:38:32.087Z,56.74
2023-02-18T15:41:01.762Z,57.61
2023-02-18T15:43:31.008Z,57.29
2023-02-18T15:46:00.557Z,57.15
2023-02-18T15:48:38.092Z,56.74
2023-02-18T15:51:17.503Z,57.34
2023-02-18T15:53:50.006Z,57.75
2023-02-18T15:56:24.883Z,57.84
2023-02-18T15:59:09.199Z,57.85
2023-02-18T16:01:39.089Z,57.84
2023-02-18T16:04:08.373Z,58.79
2023-02-18T16:06:45.598Z,58.44
2023-02-18T16:09:17.957Z,58.09
2023-02-18T16:11:49.594Z,58.35
2023-02-18T16:14:29.225Z,58.34
2023-02-18T16:17:09.750Z,58.22
2023-02-18T16:20:03.815Z,58.94
2023-02-18T16:22:38.392Z,58.25
2023-02-18T16:25:17.703Z,58.17
2023-02-18T16:27:54.965Z,58.92
2023-02-18T16:30:26.052Z,58.82
2023-02-18T16:32:55.710Z,58.32
2023-02-18T16:35:25.405Z,58.32
2023-02-18T16:37:54.505Z,58.06
2023-02-18T16:40:30.467Z,58.47
2023-02-18T16:43:01.141Z,58.48
2023-02-18T16:45:38.864Z,58.90
2023-02-18T16:48:15.036Z,58.93
2023-02-18T16:50:43.061Z,58.84
2023-02-18T16:53:12.782Z,58.33
2023-02-18T16:55:41.710Z,58.75
2023-02-18T16:58:09.751Z,58.95
2023-02-18T17:00:38.333Z,59.22
2023-02-18T17:03:08.119Z,58.83
2023-02-18T17:05:39.433Z,58.38
2023-02-18T17:08:19.112Z,58.45
2023-02-18T17:10:49.184Z,58.39
2023-02-18T17:13:18.643Z,58.77
2023-02-18T17:15:48.041Z,58.56
2023-02-18T17:18:17.458Z,58.34
2023-02-18T17:20:48.309Z,58.73
2023-02-18T17:23:16.848Z,58.79
2023-02-18T17:25:45.520Z,58.63
2023-02-18T17:28:15.071Z,58.62
2023-02-18T17:30:44.052Z,58.93
2023-02-18T17:33:16.252Z,58.75
2023-02-18T17:35:46.064Z,58.57
2023-02-18T17:38:16.460Z,58.62
2023-02-18T17:40:45.250Z,58.79
2023-02-18T17:43:15.599Z,59.64
2023-02-18T17:48:45.660Z,59.15
2023-02-18T17:51:24.473Z,59.35
2023-02-18T17:53:53.216Z,59.36
2023-02-18T17:56:21.269Z,59.81
2023-02-18T17:58:49.619Z,59.61
2023-02-18T18:01:18.506Z,59.45
2023-02-18T18:03:46.701Z,59.43
2023-02-18T18:06:20.175Z,59.48
2023-02-18T18:08:50.176Z,59.90
2023-02-18T18:11:21.978Z,59.85
2023-02-18T18:13:50.346Z,60.13
2023-02-18T18:16:19.339Z,60.16
2023-02-18T18:18:47.510Z,59.98
2023-02-18T18:21:22.761Z,60.17
2023-02-18T18:23:51.924Z,60.24
2023-02-18T18:26:19.935Z,60.54
2023-02-18T18:28:48.053Z,60.96
2023-02-18T18:31:19.647Z,60.30
2023-02-18T18:33:50.400Z,59.91
2023-02-18T18:36:20.852Z,60.26
2023-02-18T18:38:49.336Z,61.38
2023-02-18T18:41:20.733Z,60.97
2023-02-18T18:43:50.004Z,60.32
2023-02-18T18:46:18.584Z,60.75
2023-02-18T18:48:46.886Z,60.80
2023-02-18T18:51:16.946Z,60.60
2023-02-18T18:53:47.284Z,60.55
2023-02-18T18:56:15.364Z,60.81
2023-02-18T18:58:43.912Z,60.73
2023-02-18T19:01:17.606Z,60.88
2023-02-18T19:03:47.178Z,60.94
2023-02-18T19:06:17.541Z,60.59
2023-02-18T19:08:47.871Z,60.77
2023-02-18T19:11:17.200Z,60.55
2023-02-18T19:13:45.771Z,60.95
2023-02-18T19:16:19.943Z,60.55
2023-02-18T19:18:48.616Z,60.71
2023-02-18T19:21:16.885Z,60.98
2023-02-18T19:23:46.592Z,61.14
2023-02-18T19:26:17.296Z,60.68
2023-02-18T19:28:45.668Z,61.04
2023-02-18T19:31:14.198Z,61.07
2023-02-18T19:33:45.695Z,61.17
2023-02-18T19:36:14.648Z,61.45
2023-02-18T19:38:42.869Z,61.69
2023-02-18T19:41:16.731Z,61.71
2023-02-18T19:43:46.564Z,61.66
2023-02-18T19:46:17.325Z,61.80
2023-02-18T19:48:50.554Z,61.79
2023-02-18T19:51:18.894Z,61.88
2023-02-18T19:53:46.941Z,61.74
2023-02-18T19:56:16.341Z,61.45
2023-02-18T19:58:44.402Z,61.75
2023-02-18T20:01:13.622Z,62.18
2023-02-18T20:03:41.774Z,62.97
2023-02-18T20:06:17.025Z,62.69
2023-02-18T20:08:45.578Z,63.24
2023-02-18T20:11:13.674Z,63.64
2023-02-18T20:13:43.405Z,63.31
2023-02-18T20:16:12.131Z,63.89
2023-02-18T20:18:40.622Z,64.01
2023-02-18T20:21:12.195Z,63.73
2023-02-18T20:23:40.562Z,64.34
2023-02-18T20:26:11.144Z,64.13
2023-02-18T20:28:40.217Z,64.22
2023-02-18T20:31:13.324Z,64.16
2023-02-18T20:33:42.562Z,64.23
2023-02-18T20:36:14.540Z,64.10
2023-02-18T20:38:42.975Z,64.73
2023-02-18T20:41:14.567Z,64.36
2023-02-18T20:43:43.120Z,64.43
2023-02-18T20:46:17.354Z,64.42
2023-02-18T20:48:45.633Z,64.21
2023-02-18T20:51:15.989Z,64.79
2023-02-18T20:53:45.286Z,64.73
2023-02-18T20:56:14.524Z,64.70
2023-02-18T20:58:42.896Z,64.89
2023-02-18T21:01:15.253Z,64.65
2023-02-18T21:03:45.845Z,64.94
2023-02-18T21:06:16.979Z,64.77
2023-02-18T21:08:47.189Z,64.87
2023-02-18T21:11:17.813Z,64.40
2023-02-18T21:13:47.620Z,64.58
2023-02-18T21:16:19.086Z,64.78
2023-02-18T21:18:48.618Z,64.86
2023-02-18T21:21:17.116Z,64.38
2023-02-18T21:23:45.171Z,64.68
2023-02-18T21:26:17.152Z,64.82
2023-02-18T21:28:49.028Z,64.79
2023-02-18T21:31:23.487Z,64.63
2023-02-18T21:33:52.612Z,64.97
2023-02-18T21:36:21.587Z,65.54
2023-02-18T21:38:53.343Z,65.47
2023-02-18T21:41:22.387Z,65.24
2023-02-18T21:43:50.843Z,65.61
2023-02-18T21:46:23.747Z,65.38
2023-02-18T21:49:06.461Z,65.55
2023-02-18T21:51:57.019Z,65.79
2023-02-18T21:54:28.703Z,65.94
2023-02-18T21:56:58.389Z,66.05
2023-02-18T21:59:29.854Z,66.75
2023-02-18T22:02:00.774Z,66.23
2023-02-18T22:04:30.677Z,66.45
2023-02-18T22:06:59.183Z,67.15
2023-02-18T22:09:27.849Z,66.63
2023-02-18T22:11:56.349Z,66.96
2023-02-18T22:14:24.757Z,66.77
2023-02-18T22:16:52.750Z,66.86
2023-02-18T22:19:22.515Z,67.13
2023-02-18T22:21:50.583Z,66.57
2023-02-18T22:24:20.347Z,67.18
2023-02-18T22:26:48.974Z,67.30
2023-02-18T22:29:20.983Z,67.31
2023-02-18T22:31:50.575Z,67.04
2023-02-18T22:34:18.614Z,66.64
2023-02-18T22:36:48.380Z,67.15
2023-02-18T22:39:16.965Z,66.95
2023-02-18T22:41:45.175Z,66.96
2023-02-18T22:44:16.086Z,67.28
2023-02-18T22:46:45.501Z,67.59
2023-02-18T22:49:14.030Z,67.40
2023-02-18T22:51:44.350Z,67.38
2023-02-18T22:54:16.766Z,67.62
2023-02-18T22:56:46.733Z,67.46
2023-02-18T22:59:17.948Z,66.92
2023-02-18T23:01:49.533Z,66.78
2023-02-18T23:04:20.333Z,67.30
2023-02-18T23:06:49.624Z,67.18
2023-02-18T23:09:21.853Z,67.94
2023-02-18T23:11:56.174Z,67.03
2023-02-18T23:14:25.051Z,67.20
2023-02-18T23:17:16.547Z,67.09
2023-02-18T23:19:46.893Z,67.48
2023-02-18T23:22:17.759Z,67.25
2023-02-18T23:24:49.435Z,67.28
2023-02-18T23:27:18.437Z,67.81
2023-02-18T23:29:46.768Z,67.98
2023-02-18T23:32:15.247Z,67.64
2023-02-18T23:34:43.265Z,68.21
2023-02-18T23:37:11.762Z,68.10
2023-02-18T23:39:40.152Z,68.17
2023-02-18T23:42:09.765Z,68.39
2023-02-18T23:44:37.743Z,67.85
2023-02-18T23:47:05.864Z,67.99
2023-02-18T23:49:35.768Z,68.19
2023-02-18T23:52:08.008Z,68.70
2023-02-18T23:54:36.206Z,67.93
2023-02-18T23:57:04.437Z,67.89
2023-02-18T23:59:34.496Z,68.04
